sensor_id;sensor_type;location;lat;lon;timestamp;P1;durP1;ratioP1;P2;durP2;ratioP2
52266;SDS011;38223;50.940;4.034;2023-05-10T00:00:00;14.07;;;8.90;;
52266;SDS011;38223;50.940;4.034;2023-05-10T00:02:34;11.60;;;8.83;;
52266;SDS011;38223;50.940;4.034;2023-05-10T00:05:04;14.98;;;8.95;;
52266;SDS011;38223;50.940;4.034;2023-05-10T00:07:34;12.07;;;8.68;;
52266;SDS011;38223;50.940;4.034;2023-05-10T00:10:01;14.40;;;9.40;;
52266;SDS011;38223;50.940;4.034;2023-05-10T00:12:29;10.88;;;9.00;;
52266;SDS011;38223;50.940;4.034;2023-05-10T00:14:57;13.98;;;9.23;;
52266;SDS011;38223;50.940;4.034;2023-05-10T00:17:24;12.03;;;9.48;;
52266;SDS011;38223;50.940;4.034;2023-05-10T00:19:52;9.60;;;8.60;;
52266;SDS011;38223;50.940;4.034;2023-05-10T00:22:22;15.73;;;9.83;;
52266;SDS011;38223;50.940;4.034;2023-05-10T00:24:55;12.98;;;10.23;;
52266;SDS011;38223;50.940;4.034;2023-05-10T00:27:26;13.98;;;10.13;;
52266;SDS011;38223;50.940;4.034;2023-05-10T00:29:54;12.47;;;9.78;;
52266;SDS011;38223;50.940;4.034;2023-05-10T00:32:37;16.15;;;10.00;;
52266;SDS011;38223;50.940;4.034;2023-05-10T00:35:07;13.40;;;9.28;;
52266;SDS011;38223;50.940;4.034;2023-05-10T00:37:38;15.30;;;9.88;;
52266;SDS011;38223;50.940;4.034;2023-05-10T00:40:09;12.70;;;9.70;;
52266;SDS011;38223;50.940;4.034;2023-05-10T00:42:37;11.55;;;10.15;;
52266;SDS011;38223;50.940;4.034;2023-05-10T00:45:05;12.43;;;10.15;;
52266;SDS011;38223;50.940;4.034;2023-05-10T00:47:33;14.53;;;10.83;;
52266;SDS011;38223;50.940;4.034;2023-05-10T00:50:04;16.20;;;10.68;;
52266;SDS011;38223;50.940;4.034;2023-05-10T00:52:37;14.45;;;10.78;;
52266;SDS011;38223;50.940;4.034;2023-05-10T00:55:09;13.30;;;10.38;;
52266;SDS011;38223;50.940;4.034;2023-05-10T00:57:41;13.18;;;11.20;;
52266;SDS011;38223;50.940;4.034;2023-05-10T01:00:09;16.07;;;11.75;;
52266;SDS011;38223;50.940;4.034;2023-05-10T01:02:38;16.48;;;12.55;;
52266;SDS011;38223;50.940;4.034;2023-05-10T01:05:07;14.05;;;12.53;;
52266;SDS011;38223;50.940;4.034;2023-05-10T01:07:38;17.30;;;12.82;;
52266;SDS011;38223;50.940;4.034;2023-05-10T01:10:14;16.23;;;13.13;;
52266;SDS011;38223;50.940;4.034;2023-05-10T01:12:42;14.50;;;12.93;;
52266;SDS011;38223;50.940;4.034;2023-05-10T01:15:13;20.82;;;14.50;;
52266;SDS011;38223;50.940;4.034;2023-05-10T01:17:44;18.00;;;14.28;;
52266;SDS011;38223;50.940;4.034;2023-05-10T01:20:14;18.82;;;15.25;;
52266;SDS011;38223;50.940;4.034;2023-05-10T01:28:51;19.52;;;15.18;;
52266;SDS011;38223;50.940;4.034;2023-05-10T01:34:34;18.82;;;15.60;;
52266;SDS011;38223;50.940;4.034;2023-05-10T01:37:10;21.80;;;17.17;;
52266;SDS011;38223;50.940;4.034;2023-05-10T01:42:33;18.48;;;16.10;;
52266;SDS011;38223;50.940;4.034;2023-05-10T01:45:11;21.95;;;17.32;;
52266;SDS011;38223;50.940;4.034;2023-05-10T01:47:44;23.30;;;17.92;;
52266;SDS011;38223;50.940;4.034;2023-05-10T01:50:20;28.62;;;18.27;;
52266;SDS011;38223;50.940;4.034;2023-05-10T01:52:57;25.20;;;18.98;;
52266;SDS011;38223;50.940;4.034;2023-05-10T01:55:29;26.93;;;18.55;;
52266;SDS011;38223;50.940;4.034;2023-05-10T01:58:05;25.57;;;19.50;;
52266;SDS011;38223;50.940;4.034;2023-05-10T02:00:46;24.80;;;19.02;;
52266;SDS011;38223;50.940;4.034;2023-05-10T02:03:16;24.82;;;19.20;;
52266;SDS011;38223;50.940;4.034;2023-05-10T02:05:51;26.68;;;19.32;;
52266;SDS011;38223;50.940;4.034;2023-05-10T02:08:21;28.55;;;18.80;;
52266;SDS011;38223;50.940;4.034;2023-05-10T02:10:55;26.00;;;19.57;;
52266;SDS011;38223;50.940;4.034;2023-05-10T02:13:43;27.42;;;19.73;;
52266;SDS011;38223;50.940;4.034;2023-05-10T02:16:17;30.20;;;19.82;;
52266;SDS011;38223;50.940;4.034;2023-05-10T02:18:48;24.67;;;17.67;;
52266;SDS011;38223;50.940;4.034;2023-05-10T02:21:24;25.75;;;18.23;;
52266;SDS011;38223;50.940;4.034;2023-05-10T02:24:15;26.40;;;18.60;;
52266;SDS011;38223;50.940;4.034;2023-05-10T02:26:52;25.30;;;18.27;;
52266;SDS011;38223;50.940;4.034;2023-05-10T02:29:38;22.45;;;17.20;;
52266;SDS011;38223;50.940;4.034;2023-05-10T02:32:15;24.18;;;16.97;;
52266;SDS011;38223;50.940;4.034;2023-05-10T02:34:52;27.15;;;18.95;;
52266;SDS011;38223;50.940;4.034;2023-05-10T02:37:27;24.23;;;18.12;;
52266;SDS011;38223;50.940;4.034;2023-05-10T02:40:10;32.53;;;19.23;;
52266;SDS011;38223;50.940;4.034;2023-05-10T02:42:45;29.82;;;19.32;;
52266;SDS011;38223;50.940;4.034;2023-05-10T02:45:24;24.87;;;18.73;;
52266;SDS011;38223;50.940;4.034;2023-05-10T02:47:55;27.00;;;19.80;;
52266;SDS011;38223;50.940;4.034;2023-05-10T02:50:27;27.85;;;19.17;;
52266;SDS011;38223;50.940;4.034;2023-05-10T02:53:06;24.90;;;18.92;;
52266;SDS011;38223;50.940;4.034;2023-05-10T02:55:44;25.92;;;19.23;;
52266;SDS011;38223;50.940;4.034;2023-05-10T02:58:27;22.05;;;18.17;;
52266;SDS011;38223;50.940;4.034;2023-05-10T03:01:00;24.30;;;18.05;;
52266;SDS011;38223;50.940;4.034;2023-05-10T03:03:37;28.90;;;18.98;;
52266;SDS011;38223;50.940;4.034;2023-05-10T03:06:12;22.55;;;18.10;;
52266;SDS011;38223;50.940;4.034;2023-05-10T03:08:55;23.50;;;18.92;;
52266;SDS011;38223;50.940;4.034;2023-05-10T03:11:32;22.58;;;18.00;;
52266;SDS011;38223;50.940;4.034;2023-05-10T03:17:34;24.65;;;17.90;;
52266;SDS011;38223;50.940;4.034;2023-05-10T03:20:03;26.17;;;18.37;;
52266;SDS011;38223;50.940;4.034;2023-05-10T03:25:13;26.90;;;18.17;;
52266;SDS011;38223;50.940;4.034;2023-05-10T03:27:53;25.08;;;18.75;;
52266;SDS011;38223;50.940;4.034;2023-05-10T03:30:27;24.23;;;18.10;;
52266;SDS011;38223;50.940;4.034;2023-05-10T03:33:08;24.77;;;18.40;;
52266;SDS011;38223;50.940;4.034;2023-05-10T03:35:45;24.12;;;18.82;;
52266;SDS011;38223;50.940;4.034;2023-05-10T03:38:19;29.32;;;19.87;;
52266;SDS011;38223;50.940;4.034;2023-05-10T03:40:54;27.15;;;20.25;;
52266;SDS011;38223;50.940;4.034;2023-05-10T03:43:28;27.32;;;20.20;;
52266;SDS011;38223;50.940;4.034;2023-05-10T03:46:22;29.27;;;21.17;;
52266;SDS011;38223;50.940;4.034;2023-05-10T03:49:11;30.10;;;20.88;;
52266;SDS011;38223;50.940;4.034;2023-05-10T03:51:45;28.92;;;20.88;;
52266;SDS011;38223;50.940;4.034;2023-05-10T03:54:21;28.05;;;22.13;;
52266;SDS011;38223;50.940;4.034;2023-05-10T03:56:52;31.65;;;23.00;;
52266;SDS011;38223;50.940;4.034;2023-05-10T03:59:25;31.82;;;22.82;;
52266;SDS011;38223;50.940;4.034;2023-05-10T04:01:52;30.92;;;22.95;;
52266;SDS011;38223;50.940;4.034;2023-05-10T04:04:22;32.05;;;23.60;;
52266;SDS011;38223;50.940;4.034;2023-05-10T04:07:05;30.10;;;22.60;;
52266;SDS011;38223;50.940;4.034;2023-05-10T04:09:43;33.50;;;23.00;;
52266;SDS011;38223;50.940;4.034;2023-05-10T04:12:19;30.72;;;22.98;;
52266;SDS011;38223;50.940;4.034;2023-05-10T04:14:47;32.80;;;24.52;;
52266;SDS011;38223;50.940;4.034;2023-05-10T04:17:27;31.87;;;24.55;;
52266;SDS011;38223;50.940;4.034;2023-05-10T04:19:57;32.15;;;23.85;;
52266;SDS011;38223;50.940;4.034;2023-05-10T04:22:27;29.48;;;22.70;;
52266;SDS011;38223;50.940;4.034;2023-05-10T04:24:56;32.80;;;24.07;;
52266;SDS011;38223;50.940;4.034;2023-05-10T04:27:23;30.95;;;22.20;;
52266;SDS011;38223;50.940;4.034;2023-05-10T04:29:54;28.38;;;22.50;;
52266;SDS011;38223;50.940;4.034;2023-05-10T04:32:45;29.37;;;22.27;;
52266;SDS011;38223;50.940;4.034;2023-05-10T04:35:24;28.98;;;21.62;;
52266;SDS011;38223;50.940;4.034;2023-05-10T04:38:04;32.23;;;23.27;;
52266;SDS011;38223;50.940;4.034;2023-05-10T04:40:41;29.82;;;21.55;;
52266;SDS011;38223;50.940;4.034;2023-05-10T04:43:17;28.60;;;22.22;;
52266;SDS011;38223;50.940;4.034;2023-05-10T04:45:50;29.27;;;21.93;;
52266;SDS011;38223;50.940;4.034;2023-05-10T04:48:19;33.67;;;23.35;;
52266;SDS011;38223;50.940;4.034;2023-05-10T04:51:11;32.42;;;22.82;;
52266;SDS011;38223;50.940;4.034;2023-05-10T04:53:48;29.67;;;23.27;;
52266;SDS011;38223;50.940;4.034;2023-05-10T04:56:18;30.45;;;22.07;;
52266;SDS011;38223;50.940;4.034;2023-05-10T04:59:02;28.12;;;21.33;;
52266;SDS011;38223;50.940;4.034;2023-05-10T05:01:32;35.68;;;23.18;;
52266;SDS011;38223;50.940;4.034;2023-05-10T05:04:22;32.73;;;21.93;;
52266;SDS011;38223;50.940;4.034;2023-05-10T05:06:54;34.48;;;24.65;;
52266;SDS011;38223;50.940;4.034;2023-05-10T05:09:26;34.83;;;23.05;;
52266;SDS011;38223;50.940;4.034;2023-05-10T05:12:04;34.13;;;22.82;;
52266;SDS011;38223;50.940;4.034;2023-05-10T05:14:38;31.50;;;23.02;;
52266;SDS011;38223;50.940;4.034;2023-05-10T05:17:12;33.78;;;24.87;;
52266;SDS011;38223;50.940;4.034;2023-05-10T05:19:42;33.33;;;24.12;;
52266;SDS011;38223;50.940;4.034;2023-05-10T05:22:24;32.53;;;24.30;;
52266;SDS011;38223;50.940;4.034;2023-05-10T05:25:01;43.58;;;25.72;;
52266;SDS011;38223;50.940;4.034;2023-05-10T05:27:33;42.45;;;27.27;;
52266;SDS011;38223;50.940;4.034;2023-05-10T05:30:01;44.48;;;27.52;;
52266;SDS011;38223;50.940;4.034;2023-05-10T05:32:29;51.00;;;29.42;;
52266;SDS011;38223;50.940;4.034;2023-05-10T05:35:12;52.95;;;29.80;;
52266;SDS011;38223;50.940;4.034;2023-05-10T05:38:03;48.13;;;29.25;;
52266;SDS011;38223;50.940;4.034;2023-05-10T05:40:34;48.30;;;27.87;;
52266;SDS011;38223;50.940;4.034;2023-05-10T05:43:04;49.05;;;29.32;;
52266;SDS011;38223;50.940;4.034;2023-05-10T05:45:40;51.55;;;29.23;;
52266;SDS011;38223;50.940;4.034;2023-05-10T05:48:13;47.83;;;28.80;;
52266;SDS011;38223;50.940;4.034;2023-05-10T05:50:44;51.23;;;29.55;;
52266;SDS011;38223;50.940;4.034;2023-05-10T05:53:26;44.15;;;28.12;;
52266;SDS011;38223;50.940;4.034;2023-05-10T05:56:00;50.90;;;28.27;;
52266;SDS011;38223;50.940;4.034;2023-05-10T05:58:30;56.75;;;29.23;;
52266;SDS011;38223;50.940;4.034;2023-05-10T06:01:02;53.42;;;28.02;;
52266;SDS011;38223;50.940;4.034;2023-05-10T06:03:29;49.35;;;27.62;;
52266;SDS011;38223;50.940;4.034;2023-05-10T06:05:58;45.55;;;29.50;;
52266;SDS011;38223;50.940;4.034;2023-05-10T06:08:30;46.92;;;27.48;;
52266;SDS011;38223;50.940;4.034;2023-05-10T06:11:06;47.00;;;28.00;;
52266;SDS011;38223;50.940;4.034;2023-05-10T06:13:41;43.85;;;28.02;;
52266;SDS011;38223;50.940;4.034;2023-05-10T06:16:12;52.88;;;28.47;;
52266;SDS011;38223;50.940;4.034;2023-05-10T06:18:48;52.73;;;28.83;;
52266;SDS011;38223;50.940;4.034;2023-05-10T06:21:16;51.70;;;28.80;;
52266;SDS011;38223;50.940;4.034;2023-05-10T06:23:44;45.95;;;28.60;;
52266;SDS011;38223;50.940;4.034;2023-05-10T06:26:27;50.85;;;28.85;;
52266;SDS011;38223;50.940;4.034;2023-05-10T06:28:58;53.65;;;28.27;;
52266;SDS011;38223;50.940;4.034;2023-05-10T06:31:33;49.77;;;27.93;;
52266;SDS011;38223;50.940;4.034;2023-05-10T06:34:11;47.27;;;27.95;;
52266;SDS011;38223;50.940;4.034;2023-05-10T06:36:45;45.90;;;28.20;;
52266;SDS011;38223;50.940;4.034;2023-05-10T06:39:23;43.17;;;27.90;;
52266;SDS011;38223;50.940;4.034;2023-05-10T06:41:58;56.68;;;28.92;;
52266;SDS011;38223;50.940;4.034;2023-05-10T06:44:32;51.30;;;28.73;;
52266;SDS011;38223;50.940;4.034;2023-05-10T06:47:07;48.02;;;27.40;;
52266;SDS011;38223;50.940;4.034;2023-05-10T06:49:45;42.73;;;27.00;;
52266;SDS011;38223;50.940;4.034;2023-05-10T06:52:12;54.67;;;27.13;;
52266;SDS011;38223;50.940;4.034;2023-05-10T06:54:40;49.95;;;25.35;;
52266;SDS011;38223;50.940;4.034;2023-05-10T06:57:07;48.35;;;25.65;;
52266;SDS011;38223;50.940;4.034;2023-05-10T06:59:43;43.20;;;22.90;;
52266;SDS011;38223;50.940;4.034;2023-05-10T07:02:18;39.18;;;23.80;;
52266;SDS011;38223;50.940;4.034;2023-05-10T07:04:51;45.75;;;23.52;;
52266;SDS011;38223;50.940;4.034;2023-05-10T07:07:24;40.75;;;23.90;;
52266;SDS011;38223;50.940;4.034;2023-05-10T07:09:57;40.50;;;22.48;;
52266;SDS011;38223;50.940;4.034;2023-05-10T07:12:29;40.30;;;23.05;;
52266;SDS011;38223;50.940;4.034;2023-05-10T07:15:11;49.27;;;24.30;;
52266;SDS011;38223;50.940;4.034;2023-05-10T07:17:50;44.13;;;24.12;;
52266;SDS011;38223;50.940;4.034;2023-05-10T07:20:29;41.18;;;23.77;;
52266;SDS011;38223;50.940;4.034;2023-05-10T07:23:02;45.08;;;24.05;;
52266;SDS011;38223;50.940;4.034;2023-05-10T07:25:35;35.95;;;23.00;;
52266;SDS011;38223;50.940;4.034;2023-05-10T07:28:12;43.78;;;23.40;;
52266;SDS011;38223;50.940;4.034;2023-05-10T07:30:42;44.18;;;23.87;;
52266;SDS011;38223;50.940;4.034;2023-05-10T07:33:14;44.05;;;24.37;;
52266;SDS011;38223;50.940;4.034;2023-05-10T07:35:51;38.20;;;23.83;;
52266;SDS011;38223;50.940;4.034;2023-05-10T07:38:26;41.77;;;24.25;;
52266;SDS011;38223;50.940;4.034;2023-05-10T07:40:53;43.95;;;23.90;;
52266;SDS011;38223;50.940;4.034;2023-05-10T07:43:22;45.80;;;24.70;;
52266;SDS011;38223;50.940;4.034;2023-05-10T07:45:54;37.98;;;22.37;;
52266;SDS011;38223;50.940;4.034;2023-05-10T07:50:58;39.65;;;22.15;;
52266;SDS011;38223;50.940;4.034;2023-05-10T07:53:33;35.35;;;21.70;;
52266;SDS011;38223;50.940;4.034;2023-05-10T07:56:18;36.33;;;20.55;;
52266;SDS011;38223;50.940;4.034;2023-05-10T07:58:36;38.63;;;20.88;;
52266;SDS011;38223;50.940;4.034;2023-05-10T08:01:08;35.40;;;21.15;;
52266;SDS011;38223;50.940;4.034;2023-05-10T08:03:43;32.33;;;20.08;;
52266;SDS011;38223;50.940;4.034;2023-05-10T08:06:17;33.20;;;20.02;;
52266;SDS011;38223;50.940;4.034;2023-05-10T08:08:56;30.62;;;18.77;;
52266;SDS011;38223;50.940;4.034;2023-05-10T08:11:35;37.58;;;18.62;;
52266;SDS011;38223;50.940;4.034;2023-05-10T08:14:16;28.62;;;17.80;;
52266;SDS011;38223;50.940;4.034;2023-05-10T08:16:49;27.40;;;17.00;;
52266;SDS011;38223;50.940;4.034;2023-05-10T08:19:22;29.40;;;17.23;;
52266;SDS011;38223;50.940;4.034;2023-05-10T08:24:21;27.45;;;15.80;;
52266;SDS011;38223;50.940;4.034;2023-05-10T08:26:52;29.77;;;15.63;;
52266;SDS011;38223;50.940;4.034;2023-05-10T08:29:25;27.00;;;14.10;;
52266;SDS011;38223;50.940;4.034;2023-05-10T08:31:59;24.27;;;13.88;;
52266;SDS011;38223;50.940;4.034;2023-05-10T08:34:29;21.80;;;13.93;;
52266;SDS011;38223;50.940;4.034;2023-05-10T08:36:57;21.65;;;13.35;;
52266;SDS011;38223;50.940;4.034;2023-05-10T08:39:27;21.40;;;14.00;;
52266;SDS011;38223;50.940;4.034;2023-05-10T08:42:00;25.40;;;14.10;;
52266;SDS011;38223;50.940;4.034;2023-05-10T08:44:35;18.48;;;13.18;;
52266;SDS011;38223;50.940;4.034;2023-05-10T08:47:05;21.23;;;13.50;;
52266;SDS011;38223;50.940;4.034;2023-05-10T08:49:40;19.00;;;12.68;;
52266;SDS011;38223;50.940;4.034;2023-05-10T08:52:18;15.25;;;12.58;;
52266;SDS011;38223;50.940;4.034;2023-05-10T08:54:50;18.15;;;12.53;;
52266;SDS011;38223;50.940;4.034;2023-05-10T08:57:21;17.95;;;12.47;;
52266;SDS011;38223;50.940;4.034;2023-05-10T09:00:00;19.37;;;12.65;;
52266;SDS011;38223;50.940;4.034;2023-05-10T09:02:30;21.45;;;13.48;;
52266;SDS011;38223;50.940;4.034;2023-05-10T09:05:19;21.55;;;13.28;;
52266;SDS011;38223;50.940;4.034;2023-05-10T09:07:57;20.17;;;13.10;;
52266;SDS011;38223;50.940;4.034;2023-05-10T09:10:33;26.10;;;14.38;;
52266;SDS011;38223;50.940;4.034;2023-05-10T09:13:09;22.25;;;14.30;;
52266;SDS011;38223;50.940;4.034;2023-05-10T09:15:41;17.87;;;13.22;;
52266;SDS011;38223;50.940;4.034;2023-05-10T09:18:17;21.33;;;12.70;;
52266;SDS011;38223;50.940;4.034;2023-05-10T09:20:52;19.25;;;13.50;;
52266;SDS011;38223;50.940;4.034;2023-05-10T09:23:26;22.20;;;12.73;;
52266;SDS011;38223;50.940;4.034;2023-05-10T09:26:03;16.48;;;11.75;;
52266;SDS011;38223;50.940;4.034;2023-05-10T09:29:02;16.17;;;11.73;;
52266;SDS011;38223;50.940;4.034;2023-05-10T09:31:43;17.70;;;11.18;;
52266;SDS011;38223;50.940;4.034;2023-05-10T09:34:28;16.05;;;11.53;;
52266;SDS011;38223;50.940;4.034;2023-05-10T09:37:09;15.03;;;11.22;;
52266;SDS011;38223;50.940;4.034;2023-05-10T09:39:45;14.65;;;10.65;;
52266;SDS011;38223;50.940;4.034;2023-05-10T09:42:17;12.78;;;10.75;;
52266;SDS011;38223;50.940;4.034;2023-05-10T09:44:47;12.85;;;10.82;;
52266;SDS011;38223;50.940;4.034;2023-05-10T09:47:20;12.93;;;11.43;;
52266;SDS011;38223;50.940;4.034;2023-05-10T09:49:51;13.25;;;10.50;;
52266;SDS011;38223;50.940;4.034;2023-05-10T09:52:23;14.63;;;12.23;;
52266;SDS011;38223;50.940;4.034;2023-05-10T09:54:54;13.25;;;11.80;;
52266;SDS011;38223;50.940;4.034;2023-05-10T09:57:32;17.65;;;13.18;;
52266;SDS011;38223;50.940;4.034;2023-05-10T10:00:06;17.27;;;13.00;;
52266;SDS011;38223;50.940;4.034;2023-05-10T10:02:42;18.12;;;12.78;;
52266;SDS011;38223;50.940;4.034;2023-05-10T10:05:18;12.70;;;11.38;;
52266;SDS011;38223;50.940;4.034;2023-05-10T10:07:48;15.05;;;12.20;;
52266;SDS011;38223;50.940;4.034;2023-05-10T10:10:21;21.77;;;12.50;;
52266;SDS011;38223;50.940;4.034;2023-05-10T10:12:59;14.73;;;11.48;;
52266;SDS011;38223;50.940;4.034;2023-05-10T10:15:36;17.02;;;12.53;;
52266;SDS011;38223;50.940;4.034;2023-05-10T10:18:13;15.65;;;12.58;;
52266;SDS011;38223;50.940;4.034;2023-05-10T10:20:52;14.05;;;12.53;;
52266;SDS011;38223;50.940;4.034;2023-05-10T10:23:42;14.90;;;12.65;;
52266;SDS011;38223;50.940;4.034;2023-05-10T10:26:21;16.02;;;12.98;;
52266;SDS011;38223;50.940;4.034;2023-05-10T10:29:11;14.20;;;12.75;;
52266;SDS011;38223;50.940;4.034;2023-05-10T10:35:00;14.85;;;13.10;;
52266;SDS011;38223;50.940;4.034;2023-05-10T10:37:53;14.70;;;13.28;;
52266;SDS011;38223;50.940;4.034;2023-05-10T10:40:24;15.15;;;13.13;;
52266;SDS011;38223;50.940;4.034;2023-05-10T10:43:24;14.65;;;13.13;;
52266;SDS011;38223;50.940;4.034;2023-05-10T10:48:50;19.20;;;13.95;;
52266;SDS011;38223;50.940;4.034;2023-05-10T10:51:30;13.70;;;12.13;;
52266;SDS011;38223;50.940;4.034;2023-05-10T10:54:21;14.40;;;12.58;;
52266;SDS011;38223;50.940;4.034;2023-05-10T10:57:14;15.43;;;12.80;;
52266;SDS011;38223;50.940;4.034;2023-05-10T10:59:46;16.40;;;13.32;;
52266;SDS011;38223;50.940;4.034;2023-05-10T11:05:36;21.33;;;12.80;;
52266;SDS011;38223;50.940;4.034;2023-05-10T11:08:27;14.75;;;13.10;;
52266;SDS011;38223;50.940;4.034;2023-05-10T11:11:20;14.68;;;12.50;;
52266;SDS011;38223;50.940;4.034;2023-05-10T11:13:46;14.63;;;13.00;;
52266;SDS011;38223;50.940;4.034;2023-05-10T11:16:28;13.65;;;12.23;;
52266;SDS011;38223;50.940;4.034;2023-05-10T11:19:10;15.20;;;12.33;;
52266;SDS011;38223;50.940;4.034;2023-05-10T11:22:11;14.87;;;12.47;;
52266;SDS011;38223;50.940;4.034;2023-05-10T11:24:41;18.52;;;12.55;;
52266;SDS011;38223;50.940;4.034;2023-05-10T11:27:11;13.98;;;12.45;;
52266;SDS011;38223;50.940;4.034;2023-05-10T11:29:49;13.25;;;11.95;;
52266;SDS011;38223;50.940;4.034;2023-05-10T11:32:20;18.67;;;12.47;;
52266;SDS011;38223;50.940;4.034;2023-05-10T11:34:56;13.68;;;12.35;;
52266;SDS011;38223;50.940;4.034;2023-05-10T11:37:28;14.90;;;13.18;;
52266;SDS011;38223;50.940;4.034;2023-05-10T11:40:03;14.53;;;13.13;;
52266;SDS011;38223;50.940;4.034;2023-05-10T11:42:38;13.70;;;12.30;;
52266;SDS011;38223;50.940;4.034;2023-05-10T11:45:23;14.68;;;13.13;;
52266;SDS011;38223;50.940;4.034;2023-05-10T11:47:54;15.13;;;13.35;;
52266;SDS011;38223;50.940;4.034;2023-05-10T11:50:23;14.50;;;12.67;;
52266;SDS011;38223;50.940;4.034;2023-05-10T11:52:53;16.12;;;12.28;;
52266;SDS011;38223;50.940;4.034;2023-05-10T11:55:22;13.20;;;11.93;;
52266;SDS011;38223;50.940;4.034;2023-05-10T11:57:53;14.63;;;13.10;;
52266;SDS011;38223;50.940;4.034;2023-05-10T12:00:25;13.80;;;12.47;;
52266;SDS011;38223;50.940;4.034;2023-05-10T12:02:58;17.30;;;13.30;;
52266;SDS011;38223;50.940;4.034;2023-05-10T12:05:32;15.18;;;12.55;;
52266;SDS011;38223;50.940;4.034;2023-05-10T12:08:15;16.97;;;13.08;;
52266;SDS011;38223;50.940;4.034;2023-05-10T12:11:03;16.55;;;13.20;;
52266;SDS011;38223;50.940;4.034;2023-05-10T12:13:43;18.73;;;13.83;;
52266;SDS011;38223;50.940;4.034;2023-05-10T12:16:21;14.75;;;13.20;;
52266;SDS011;38223;50.940;4.034;2023-05-10T12:19:03;16.05;;;13.13;;
52266;SDS011;38223;50.940;4.034;2023-05-10T12:21:38;16.85;;;13.28;;
52266;SDS011;38223;50.940;4.034;2023-05-10T12:24:10;14.75;;;13.08;;
52266;SDS011;38223;50.940;4.034;2023-05-10T12:26:43;15.15;;;13.20;;
52266;SDS011;38223;50.940;4.034;2023-05-10T12:29:19;14.38;;;12.88;;
52266;SDS011;38223;50.940;4.034;2023-05-10T12:31:52;16.52;;;12.75;;
52266;SDS011;38223;50.940;4.034;2023-05-10T12:34:32;15.32;;;13.53;;
52266;SDS011;38223;50.940;4.034;2023-05-10T12:37:02;15.18;;;13.00;;
52266;SDS011;38223;50.940;4.034;2023-05-10T12:42:18;18.20;;;13.83;;
52266;SDS011;38223;50.940;4.034;2023-05-10T12:44:54;15.93;;;13.58;;
52266;SDS011;38223;50.940;4.034;2023-05-10T12:47:23;20.35;;;15.55;;
52266;SDS011;38223;50.940;4.034;2023-05-10T12:49:52;17.10;;;13.18;;
52266;SDS011;38223;50.940;4.034;2023-05-10T12:55:11;16.45;;;14.05;;
52266;SDS011;38223;50.940;4.034;2023-05-10T12:57:38;16.10;;;13.83;;
52266;SDS011;38223;50.940;4.034;2023-05-10T13:00:06;18.15;;;14.68;;
52266;SDS011;38223;50.940;4.034;2023-05-10T13:02:48;15.88;;;14.33;;
52266;SDS011;38223;50.940;4.034;2023-05-10T13:05:18;15.90;;;14.20;;
52266;SDS011;38223;50.940;4.034;2023-05-10T13:07:46;19.55;;;14.75;;
52266;SDS011;38223;50.940;4.034;2023-05-10T13:10:22;16.70;;;15.00;;
52266;SDS011;38223;50.940;4.034;2023-05-10T13:13:05;17.73;;;15.90;;
52266;SDS011;38223;50.940;4.034;2023-05-10T13:15:45;17.12;;;15.45;;
52266;SDS011;38223;50.940;4.034;2023-05-10T13:18:18;18.40;;;16.17;;
52266;SDS011;38223;50.940;4.034;2023-05-10T13:21:01;18.95;;;17.05;;
52266;SDS011;38223;50.940;4.034;2023-05-10T13:26:08;18.10;;;16.32;;
52266;SDS011;38223;50.940;4.034;2023-05-10T13:28:41;17.50;;;15.75;;
52266;SDS011;38223;50.940;4.034;2023-05-10T13:31:13;17.07;;;15.55;;
52266;SDS011;38223;50.940;4.034;2023-05-10T13:33:46;16.82;;;15.18;;
52266;SDS011;38223;50.940;4.034;2023-05-10T13:36:13;18.92;;;16.90;;
52266;SDS011;38223;50.940;4.034;2023-05-10T13:38:49;20.52;;;16.20;;
52266;SDS011;38223;50.940;4.034;2023-05-10T13:41:21;20.25;;;16.20;;
52266;SDS011;38223;50.940;4.034;2023-05-10T13:43:48;17.70;;;15.58;;
52266;SDS011;38223;50.940;4.034;2023-05-10T13:46:16;19.82;;;15.72;;
52266;SDS011;38223;50.940;4.034;2023-05-10T13:48:48;19.60;;;14.47;;
52266;SDS011;38223;50.940;4.034;2023-05-10T13:51:23;18.67;;;15.00;;
52266;SDS011;38223;50.940;4.034;2023-05-10T13:53:56;17.75;;;16.15;;
52266;SDS011;38223;50.940;4.034;2023-05-10T13:56:27;17.70;;;15.68;;
52266;SDS011;38223;50.940;4.034;2023-05-10T13:58:56;22.40;;;18.57;;
52266;SDS011;38223;50.940;4.034;2023-05-10T14:01:27;18.67;;;16.70;;
52266;SDS011;38223;50.940;4.034;2023-05-10T14:04:03;20.25;;;17.77;;
52266;SDS011;38223;50.940;4.034;2023-05-10T14:06:33;23.30;;;18.52;;
52266;SDS011;38223;50.940;4.034;2023-05-10T14:09:03;24.92;;;18.90;;
52266;SDS011;38223;50.940;4.034;2023-05-10T14:11:40;22.73;;;19.60;;
52266;SDS011;38223;50.940;4.034;2023-05-10T14:14:09;24.57;;;19.27;;
52266;SDS011;38223;50.940;4.034;2023-05-10T14:16:45;27.65;;;20.08;;
52266;SDS011;38223;50.940;4.034;2023-05-10T14:19:17;23.75;;;19.70;;
52266;SDS011;38223;50.940;4.034;2023-05-10T14:21:47;25.12;;;20.15;;
52266;SDS011;38223;50.940;4.034;2023-05-10T14:24:15;24.35;;;19.92;;
52266;SDS011;38223;50.940;4.034;2023-05-10T14:26:58;30.32;;;20.77;;
52266;SDS011;38223;50.940;4.034;2023-05-10T14:29:27;16.15;;;13.30;;
52266;SDS011;38223;50.940;4.034;2023-05-10T14:32:03;12.78;;;10.93;;
52266;SDS011;38223;50.940;4.034;2023-05-10T14:34:38;14.10;;;10.00;;
52266;SDS011;38223;50.940;4.034;2023-05-10T14:37:12;17.30;;;9.90;;
52266;SDS011;38223;50.940;4.034;2023-05-10T14:39:50;12.85;;;8.95;;
52266;SDS011;38223;50.940;4.034;2023-05-10T14:42:25;11.18;;;8.48;;
52266;SDS011;38223;50.940;4.034;2023-05-10T14:44:54;10.72;;;7.20;;
52266;SDS011;38223;50.940;4.034;2023-05-10T14:47:23;13.40;;;7.65;;
52266;SDS011;38223;50.940;4.034;2023-05-10T14:50:01;13.43;;;7.25;;
52266;SDS011;38223;50.940;4.034;2023-05-10T14:52:37;11.18;;;7.72;;
52266;SDS011;38223;50.940;4.034;2023-05-10T14:55:10;10.65;;;7.50;;
52266;SDS011;38223;50.940;4.034;2023-05-10T14:57:54;12.18;;;7.42;;
52266;SDS011;38223;50.940;4.034;2023-05-10T15:00:36;13.40;;;7.22;;
52266;SDS011;38223;50.940;4.034;2023-05-10T15:03:11;12.00;;;7.42;;
52266;SDS011;38223;50.940;4.034;2023-05-10T15:05:53;12.60;;;8.03;;
52266;SDS011;38223;50.940;4.034;2023-05-10T15:08:29;13.80;;;8.03;;
52266;SDS011;38223;50.940;4.034;2023-05-10T15:11:14;11.53;;;7.83;;
52266;SDS011;38223;50.940;4.034;2023-05-10T15:13:41;13.15;;;7.62;;
52266;SDS011;38223;50.940;4.034;2023-05-10T15:16:09;15.45;;;7.95;;
52266;SDS011;38223;50.940;4.034;2023-05-10T15:18:36;13.83;;;7.85;;
52266;SDS011;38223;50.940;4.034;2023-05-10T15:21:14;11.45;;;8.13;;
52266;SDS011;38223;50.940;4.034;2023-05-10T15:23:41;10.88;;;7.97;;
52266;SDS011;38223;50.940;4.034;2023-05-10T15:26:10;13.30;;;8.00;;
52266;SDS011;38223;50.940;4.034;2023-05-10T15:28:44;13.13;;;8.45;;
52266;SDS011;38223;50.940;4.034;2023-05-10T15:31:12;16.85;;;9.03;;
52266;SDS011;38223;50.940;4.034;2023-05-10T15:33:40;14.68;;;9.25;;
52266;SDS011;38223;50.940;4.034;2023-05-10T15:36:08;16.97;;;9.43;;
52266;SDS011;38223;50.940;4.034;2023-05-10T15:38:35;14.28;;;10.00;;
52266;SDS011;38223;50.940;4.034;2023-05-10T15:41:08;13.85;;;9.95;;
52266;SDS011;38223;50.940;4.034;2023-05-10T15:43:37;17.52;;;9.20;;
52266;SDS011;38223;50.940;4.034;2023-05-10T15:46:05;13.90;;;9.48;;